createdAt,value
2022-07-29T00:00:16.073Z,3.80
2022-07-29T00:02:18.214Z,3.10
2022-07-29T00:04:21.172Z,3.53
2022-07-29T00:06:23.685Z,3.05
2022-07-29T00:08:27.133Z,3.25
2022-07-29T00:10:29.266Z,3.88
2022-07-29T00:12:31.371Z,3.03
2022-07-29T00:14:34.382Z,3.55
2022-07-29T00:16:36.693Z,3.38
2022-07-29T00:18:38.893Z,3.40
2022-07-29T00:20:40.994Z,3.35
2022-07-29T00:22:43.173Z,3.28
2022-07-29T00:24:46.718Z,3.30
2022-07-29T00:26:48.849Z,3.28
2022-07-29T00:28:50.978Z,4.00
2022-07-29T00:30:53.123Z,3.40
2022-07-29T00:32:55.233Z,3.80
2022-07-29T00:34:57.327Z,3.80
2022-07-29T00:36:59.529Z,3.65
2022-07-29T00:39:01.683Z,3.35
2022-07-29T00:41:05.178Z,3.58
2022-07-29T00:43:07.481Z,3.35
2022-07-29T00:45:10.125Z,3.50
2022-07-29T00:47:12.845Z,3.53
2022-07-29T00:49:15.069Z,3.60
2022-07-29T00:51:17.273Z,3.03
2022-07-29T00:53:20.891Z,3.83
2022-07-29T00:55:23.201Z,3.65
2022-07-29T00:57:26.709Z,3.88
2022-07-29T00:59:34.627Z,3.47
2022-07-29T01:01:37.569Z,3.55
2022-07-29T01:03:39.721Z,3.50
2022-07-29T01:05:50.874Z,3.20
2022-07-29T01:07:54.454Z,3.70
2022-07-29T01:09:56.608Z,3.53
2022-07-29T01:11:58.947Z,4.25
2022-07-29T01:14:02.772Z,4.35
2022-07-29T01:16:08.648Z,3.40
2022-07-29T01:18:18.162Z,3.75
2022-07-29T01:20:31.489Z,3.30
2022-07-29T01:22:38.700Z,3.60
2022-07-29T01:24:46.929Z,3.70
2022-07-29T01:26:50.641Z,3.47
2022-07-29T01:29:07.654Z,3.13
2022-07-29T01:31:10.932Z,3.55
2022-07-29T01:33:19.352Z,3.28
2022-07-29T01:35:22.842Z,3.50
2022-07-29T01:37:26.624Z,3.45
2022-07-29T01:39:30.706Z,4.03
2022-07-29T01:41:37.789Z,4.00
2022-07-29T01:43:43.657Z,3.80
2022-07-29T01:45:49.604Z,3.40
2022-07-29T01:47:55.333Z,3.22
2022-07-29T01:50:00.075Z,3.60
2022-07-29T01:52:04.692Z,3.60
2022-07-29T01:54:10.150Z,4.20
2022-07-29T01:56:12.772Z,3.47
2022-07-29T01:58:15.780Z,3.88
2022-07-29T02:00:18.273Z,3.63
2022-07-29T02:02:22.675Z,3.50
2022-07-29T02:04:29.257Z,4.13
2022-07-29T02:06:33.962Z,4.05
2022-07-29T02:08:38.172Z,3.60
2022-07-29T02:10:41.713Z,4.10
2022-07-29T02:12:46.571Z,4.13
2022-07-29T02:14:54.586Z,3.65
2022-07-29T02:16:57.550Z,3.40
2022-07-29T02:19:02.537Z,3.97
2022-07-29T02:21:04.866Z,3.58
2022-07-29T02:23:07.674Z,3.50
2022-07-29T02:25:13.919Z,3.83
2022-07-29T02:27:16.976Z,3.60
2022-07-29T02:29:22.148Z,3.80
2022-07-29T02:31:25.928Z,3.63
2022-07-29T02:33:29.384Z,3.65
2022-07-29T02:35:34.969Z,3.85
2022-07-29T02:37:37.843Z,4.25
2022-07-29T02:39:42.403Z,4.30
2022-07-29T02:41:46.169Z,3.78
2022-07-29T02:43:49.046Z,3.60
2022-07-29T02:45:52.837Z,3.92
2022-07-29T02:47:56.455Z,3.60
2022-07-29T02:50:01.769Z,4.13
2022-07-29T02:52:07.362Z,3.90
2022-07-29T02:54:10.767Z,3.65
2022-07-29T02:56:14.753Z,4.18
2022-07-29T02:58:19.794Z,3.92
2022-07-29T03:00:22.626Z,3.75
2022-07-29T03:02:25.472Z,4.32
2022-07-29T03:04:28.393Z,3.60
2022-07-29T03:06:38.849Z,4.15
2022-07-29T03:08:43.017Z,3.85
2022-07-29T03:10:46.375Z,3.83
2022-07-29T03:12:49.008Z,3.55
2022-07-29T03:14:51.437Z,3.63
2022-07-29T03:16:54.172Z,3.67
2022-07-29T03:18:56.519Z,3.67
2022-07-29T03:20:58.806Z,3.33
2022-07-29T03:23:01.025Z,3.78
2022-07-29T03:25:10.668Z,4.03
2022-07-29T03:27:12.995Z,3.95
2022-07-29T03:29:15.261Z,3.65
2022-07-29T03:31:17.458Z,3.53
2022-07-29T03:33:19.713Z,4.10
2022-07-29T03:35:22.173Z,3.90
2022-07-29T03:37:24.475Z,4.03
2022-07-29T03:39:29.200Z,4.65
2022-07-29T03:41:33.217Z,3.55
2022-07-29T03:43:37.554Z,4.32
2022-07-29T03:45:40.476Z,3.80
2022-07-29T03:47:50.168Z,4.30
2022-07-29T03:49:55.233Z,4.00
2022-07-29T03:51:57.451Z,3.90
2022-07-29T03:53:59.899Z,3.60
2022-07-29T03:56:03.555Z,3.72
2022-07-29T03:58:08.135Z,4.03
2022-07-29T04:00:10.874Z,4.30
2022-07-29T04:02:14.629Z,3.70
2022-07-29T04:04:18.326Z,3.88
2022-07-29T04:06:20.845Z,3.60
2022-07-29T04:08:22.956Z,3.60
2022-07-29T04:10:30.739Z,3.90
2022-07-29T04:12:34.298Z,3.63
2022-07-29T04:14:37.851Z,3.78
2022-07-29T04:16:40.055Z,3.90
2022-07-29T04:18:42.353Z,4.40
2022-07-29T04:20:44.490Z,3.83
2022-07-29T04:22:46.604Z,3.50
2022-07-29T04:24:48.789Z,4.00
2022-07-29T04:26:51.122Z,4.00
2022-07-29T04:28:53.235Z,4.07
2022-07-29T04:30:56.791Z,3.80
2022-07-29T04:32:58.976Z,3.97
2022-07-29T04:35:01.112Z,3.80
2022-07-29T04:37:03.272Z,4.07
2022-07-29T04:39:05.525Z,4.03
2022-07-29T04:41:07.786Z,4.25
2022-07-29T04:43:09.973Z,4.13
2022-07-29T04:45:14.013Z,3.95
2022-07-29T04:47:17.688Z,3.88
2022-07-29T04:49:19.874Z,3.58
2022-07-29T04:51:22.035Z,4.05
2022-07-29T04:53:24.179Z,4.10
2022-07-29T04:55:26.360Z,3.92
2022-07-29T04:57:28.498Z,3.75
2022-07-29T04:59:30.642Z,4.10
2022-07-29T05:01:32.813Z,4.03
2022-07-29T05:03:36.526Z,4.30
2022-07-29T05:05:38.649Z,4.00
2022-07-29T05:07:40.773Z,3.97
2022-07-29T05:09:42.921Z,3.90
2022-07-29T05:11:45.047Z,4.07
2022-07-29T05:13:47.242Z,4.93
2022-07-29T05:15:49.419Z,4.15
2022-07-29T05:17:51.579Z,4.50
2022-07-29T05:19:55.066Z,4.72
2022-07-29T05:21:57.223Z,4.50
2022-07-29T05:23:59.362Z,4.18
2022-07-29T05:26:01.533Z,4.38
2022-07-29T05:28:03.690Z,4.40
2022-07-29T05:30:06.287Z,4.30
2022-07-29T05:32:08.559Z,4.03
2022-07-29T05:34:10.652Z,3.95
2022-07-29T05:36:14.290Z,3.78
2022-07-29T05:38:16.465Z,3.80
2022-07-29T05:40:18.672Z,4.18
2022-07-29T05:42:20.771Z,4.40
2022-07-29T05:44:25.365Z,4.20
2022-07-29T05:46:27.702Z,4.50
2022-07-29T05:48:29.889Z,4.00
2022-07-29T05:50:32.047Z,4.35
2022-07-29T05:52:35.602Z,4.22
2022-07-29T05:54:37.714Z,4.00
2022-07-29T05:56:40.409Z,4.53
2022-07-29T05:58:42.510Z,5.72
2022-07-29T06:00:44.861Z,4.20
2022-07-29T06:02:46.993Z,4.10
2022-07-29T06:04:50.980Z,4.30
2022-07-29T06:06:53.134Z,4.25
2022-07-29T06:08:56.627Z,4.28
2022-07-29T06:10:58.730Z,3.55
2022-07-29T06:13:00.895Z,3.92
2022-07-29T06:15:03.102Z,3.75
2022-07-29T06:17:05.386Z,4.05
2022-07-29T06:19:07.605Z,3.60
2022-07-29T06:21:12.009Z,3.88
2022-07-29T06:23:14.149Z,3.40
2022-07-29T06:25:17.595Z,3.33
2022-07-29T06:27:19.722Z,3.70
2022-07-29T06:29:21.790Z,3.83
2022-07-29T06:31:24.025Z,3.33
2022-07-29T06:33:26.252Z,3.42
2022-07-29T06:35:39.262Z,3.20
2022-07-29T06:37:44.333Z,3.55
2022-07-29T06:39:48.734Z,3.53
2022-07-29T06:41:52.308Z,2.95
2022-07-29T06:43:56.781Z,3.10
2022-07-29T06:46:00.506Z,3.60
2022-07-29T06:48:02.752Z,2.95
2022-07-29T06:50:05.460Z,2.80
2022-07-29T06:52:09.999Z,3.00
2022-07-29T06:54:12.098Z,3.38
2022-07-29T06:56:14.246Z,2.97
2022-07-29T06:58:17.814Z,2.97
2022-07-29T07:00:20.049Z,2.88
2022-07-29T07:02:22.220Z,2.90
2022-07-29T07:04:24.400Z,2.50
2022-07-29T07:06:26.512Z,2.90
2022-07-29T07:08:28.722Z,3.13
2022-07-29T07:10:30.946Z,2.92
2022-07-29T07:12:33.071Z,2.80
2022-07-29T07:14:36.657Z,3.30
2022-07-29T07:16:38.851Z,2.72
2022-07-29T07:18:41.007Z,3.33
2022-07-29T07:20:43.441Z,3.17
2022-07-29T07:22:46.031Z,3.10
2022-07-29T07:24:48.136Z,3.20
2022-07-29T07:26:50.384Z,3.00
2022-07-29T07:28:52.592Z,3.40
2022-07-29T07:30:56.187Z,3.10
2022-07-29T07:32:58.317Z,2.88
2022-07-29T07:35:00.573Z,3.40
2022-07-29T07:37:02.682Z,2.80
2022-07-29T07:39:04.812Z,2.60
2022-07-29T07:41:07.098Z,2.65
2022-07-29T07:43:09.188Z,2.67
2022-07-29T07:45:13.893Z,2.35
2022-07-29T07:47:19.889Z,2.28
2022-07-29T07:49:22.555Z,2.22
2022-07-29T07:51:24.704Z,2.15
2022-07-29T07:53:26.838Z,1.90
2022-07-29T07:55:29.496Z,2.05
2022-07-29T07:57:34.693Z,2.50
2022-07-29T07:59:36.859Z,2.58
2022-07-29T08:01:48.457Z,2.20
2022-07-29T08:03:59.385Z,2.05
2022-07-29T08:06:01.576Z,2.20
2022-07-29T08:08:03.665Z,2.20
2022-07-29T08:10:06.297Z,2.22
2022-07-29T08:12:08.778Z,2.53
2022-07-29T08:14:10.931Z,2.50
2022-07-29T08:16:16.037Z,2.40
2022-07-29T08:18:18.409Z,2.10
2022-07-29T08:20:21.946Z,2.28
2022-07-29T08:22:24.038Z,2.53
2022-07-29T08:24:26.192Z,2.25
2022-07-29T08:26:28.302Z,2.13
2022-07-29T08:28:30.481Z,2.35
2022-07-29T08:30:32.660Z,2.55
2022-07-29T08:32:52.769Z,2.40
2022-07-29T08:34:55.684Z,2.55
2022-07-29T08:36:59.138Z,1.90
2022-07-29T08:39:01.433Z,2.40
2022-07-29T08:41:03.612Z,2.00
2022-07-29T08:43:06.392Z,2.30
2022-07-29T08:45:09.423Z,2.25
2022-07-29T08:47:11.949Z,2.38
2022-07-29T08:49:14.178Z,2.20
2022-07-29T08:51:17.191Z,2.30
2022-07-29T08:53:20.711Z,2.53
2022-07-29T08:55:23.138Z,2.60
2022-07-29T08:57:25.896Z,2.40
2022-07-29T08:59:31.913Z,2.40
2022-07-29T09:01:35.840Z,2.47
2022-07-29T09:03:39.603Z,3.13
2022-07-29T09:05:46.188Z,2.38
2022-07-29T09:07:50.270Z,2.45
2022-07-29T09:09:53.759Z,2.40
2022-07-29T09:11:58.283Z,2.45
2022-07-29T09:14:00.460Z,2.78
2022-07-29T09:16:07.030Z,2.53
2022-07-29T09:18:20.307Z,3.63
2022-07-29T09:20:33.294Z,2.40
2022-07-29T09:22:40.077Z,2.70
2022-07-29T09:24:45.011Z,3.13
2022-07-29T09:26:48.685Z,2.83
2022-07-29T09:28:50.801Z,2.53
2022-07-29T09:30:53.641Z,2.60
2022-07-29T09:32:56.385Z,2.80
2022-07-29T09:35:17.453Z,3.00
2022-07-29T09:37:27.693Z,2.83
2022-07-29T09:41:58.824Z,2.67
2022-07-29T09:44:01.370Z,3.00
2022-07-29T09:46:13.205Z,3.15
2022-07-29T09:48:16.531Z,2.40
2022-07-29T09:50:18.719Z,2.90
2022-07-29T09:52:23.223Z,2.40
2022-07-29T09:54:25.433Z,3.10
2022-07-29T09:56:39.846Z,2.80
2022-07-29T09:58:43.383Z,3.25
2022-07-29T10:00:46.797Z,3.05
2022-07-29T10:02:49.059Z,3.22
2022-07-29T10:04:51.326Z,3.20
2022-07-29T10:07:04.422Z,3.10
2022-07-29T10:09:10.681Z,3.03
2022-07-29T10:11:13.811Z,2.75
2022-07-29T10:13:16.644Z,2.85
2022-07-29T10:15:20.850Z,2.78
2022-07-29T10:17:23.212Z,3.45
2022-07-29T10:19:25.781Z,3.20
2022-07-29T10:21:35.635Z,3.13
2022-07-29T10:23:46.990Z,2.90
2022-07-29T10:25:49.534Z,2.92
2022-07-29T10:27:52.203Z,2.85
2022-07-29T10:29:55.153Z,3.05
2022-07-29T10:32:07.641Z,3.40
2022-07-29T10:34:15.618Z,3.13
2022-07-29T10:36:28.334Z,3.10
2022-07-29T10:38:45.955Z,2.78
2022-07-29T10:40:57.361Z,3.03
2022-07-29T10:43:03.101Z,2.90
2022-07-29T10:45:06.051Z,3.25
2022-07-29T10:47:09.590Z,2.97
2022-07-29T10:49:15.279Z,3.10
2022-07-29T10:51:17.892Z,3.13
2022-07-29T10:53:20.347Z,3.05
2022-07-29T10:55:36.356Z,2.47
2022-07-29T10:57:54.128Z,3.58
2022-07-29T11:00:11.746Z,3.35
2022-07-29T11:02:44.753Z,2.67
2022-07-29T11:05:04.096Z,2.85
2022-07-29T11:07:09.401Z,2.60
2022-07-29T11:09:20.125Z,3.15
2022-07-29T11:11:34.885Z,2.72
2022-07-29T11:13:53.186Z,3.40
2022-07-29T11:15:57.520Z,2.47
2022-07-29T11:20:37.782Z,2.58
2022-07-29T11:22:46.074Z,2.83
2022-07-29T11:25:09.514Z,2.42
2022-07-29T11:27:14.726Z,2.92
2022-07-29T11:29:21.635Z,2.63
2022-07-29T11:31:35.588Z,2.25
2022-07-29T11:33:56.005Z,2.72
2022-07-29T11:36:16.654Z,2.95
2022-07-29T11:41:20.914Z,2.47
2022-07-29T11:43:38.038Z,2.40
2022-07-29T11:45:47.401Z,2.60
2022-07-29T11:47:53.539Z,2.60
2022-07-29T11:49:56.804Z,2.58
2022-07-29T11:52:03.528Z,2.58
2022-07-29T11:54:06.527Z,2.60
2022-07-29T11:56:21.997Z,2.60
2022-07-29T11:58:28.816Z,2.40
2022-07-29T12:00:32.215Z,2.50
2022-07-29T12:02:41.305Z,2.40
2022-07-29T12:04:49.974Z,2.75
2022-07-29T12:06:52.172Z,2.80
2022-07-29T12:08:55.668Z,2.72
2022-07-29T12:10:57.804Z,2.55
2022-07-29T12:12:59.971Z,2.53
2022-07-29T12:15:12.259Z,2.50
2022-07-29T12:17:26.662Z,2.33
2022-07-29T12:19:43.391Z,2.53
2022-07-29T12:21:50.935Z,2.40
2022-07-29T12:24:09.385Z,2.55
2022-07-29T12:26:21.709Z,2.42
2022-07-29T12:28:28.256Z,2.95
2022-07-29T12:30:38.009Z,2.40
2022-07-29T12:32:41.001Z,3.08
2022-07-29T12:34:43.119Z,2.90
2022-07-29T12:36:45.456Z,2.70
2022-07-29T12:38:47.802Z,2.80
2022-07-29T12:40:52.761Z,2.65
2022-07-29T12:43:06.444Z,3.05
2022-07-29T12:45:09.164Z,2.72
2022-07-29T12:47:11.238Z,2.92
2022-07-29T12:49:22.582Z,3.13
2022-07-29T12:51:29.952Z,2.40
2022-07-29T12:53:32.137Z,2.97
2022-07-29T12:55:41.715Z,2.70
2022-07-29T12:57:48.758Z,2.60
2022-07-29T13:00:05.320Z,2.42
2022-07-29T13:02:07.458Z,2.85
2022-07-29T13:04:09.633Z,2.58
2022-07-29T13:06:26.598Z,2.40
2022-07-29T13:08:28.701Z,2.72
2022-07-29T13:10:36.963Z,3.03
2022-07-29T13:12:39.373Z,2.83
2022-07-29T13:14:43.529Z,2.83
2022-07-29T13:17:05.566Z,2.10
2022-07-29T13:19:08.745Z,2.35
2022-07-29T13:21:15.064Z,2.53
2022-07-29T13:23:17.277Z,2.47
2022-07-29T13:25:25.240Z,2.75
2022-07-29T13:27:28.809Z,2.50
2022-07-29T13:29:31.782Z,2.40
2022-07-29T13:31:35.449Z,2.65
2022-07-29T13:33:37.787Z,2.65
2022-07-29T13:35:40.345Z,3.28
2022-07-29T13:37:42.525Z,2.85
2022-07-29T13:39:52.814Z,2.80
2022-07-29T13:41:55.830Z,2.58
2022-07-29T13:43:59.621Z,2.90
2022-07-29T13:46:01.912Z,3.05
2022-07-29T13:48:05.765Z,2.78
2022-07-29T13:50:09.009Z,2.60
2022-07-29T13:52:11.192Z,2.78
2022-07-29T13:54:13.366Z,3.13
2022-07-29T13:56:15.489Z,2.80
2022-07-29T13:58:17.615Z,2.95
2022-07-29T14:00:19.803Z,3.40
2022-07-29T14:02:25.323Z,2.80
2022-07-29T14:04:29.724Z,2.70
2022-07-29T14:06:31.977Z,2.90
2022-07-29T14:08:34.090Z,2.70
2022-07-29T14:10:36.218Z,2.70
2022-07-29T14:12:38.362Z,2.60
2022-07-29T14:14:40.476Z,2.90
2022-07-29T14:16:47.647Z,2.75
2022-07-29T14:18:52.693Z,3.17
2022-07-29T14:20:56.272Z,2.67
2022-07-29T14:22:58.378Z,2.83
2022-07-29T14:25:06.199Z,3.22
2022-07-29T14:27:16.972Z,2.60
2022-07-29T14:29:19.134Z,2.67
2022-07-29T14:31:21.356Z,2.90
2022-07-29T14:33:23.521Z,2.53
2022-07-29T14:35:25.934Z,3.42
2022-07-29T14:37:39.893Z,3.30
2022-07-29T14:39:43.355Z,3.15
2022-07-29T14:41:45.663Z,2.65
2022-07-29T14:43:47.824Z,3.33
2022-07-29T14:45:49.974Z,3.30
2022-07-29T14:47:53.405Z,3.13
2022-07-29T14:49:59.420Z,3.15
2022-07-29T14:52:01.772Z,2.92
2022-07-29T14:54:05.434Z,2.88
2022-07-29T14:56:35.049Z,2.80
2022-07-29T14:58:29.818Z,2.65
2022-07-29T15:00:31.988Z,3.10
2022-07-29T15:02:59.288Z,2.78
2022-07-29T15:04:56.464Z,2.92
2022-07-29T15:06:58.586Z,2.67
2022-07-29T15:09:00.749Z,2.70
2022-07-29T15:11:04.248Z,2.60
2022-07-29T15:13:06.383Z,3.17
2022-07-29T15:15:08.872Z,3.40
2022-07-29T15:17:11.105Z,2.63
2022-07-29T15:19:13.267Z,2.70
2022-07-29T15:21:15.404Z,2.97
2022-07-29T15:23:17.586Z,3.22
2022-07-29T15:25:19.818Z,3.00
2022-07-29T15:27:23.361Z,2.83
2022-07-29T15:29:25.447Z,2.63
2022-07-29T15:31:27.606Z,2.95
2022-07-29T15:33:29.800Z,3.10
2022-07-29T15:35:31.969Z,2.67
2022-07-29T15:37:48.695Z,2.60
2022-07-29T15:39:51.611Z,2.90
2022-07-29T15:41:53.762Z,2.53
2022-07-29T15:43:57.459Z,3.00
2022-07-29T15:45:59.652Z,3.13
2022-07-29T15:48:01.790Z,2.60
2022-07-29T15:50:04.301Z,2.97
2022-07-29T15:52:07.460Z,2.80
2022-07-29T15:54:09.716Z,3.22
2022-07-29T15:56:11.875Z,2.90
2022-07-29T15:58:14.051Z,3.00
2022-07-29T16:00:17.917Z,3.35
2022-07-29T16:02:20.206Z,3.35
2022-07-29T16:04:22.719Z,3.20
2022-07-29T16:06:24.874Z,2.88
2022-07-29T16:08:27.002Z,3.38
2022-07-29T16:10:29.139Z,3.42
2022-07-29T16:12:31.278Z,3.20
2022-07-29T16:14:33.432Z,3.08
2022-07-29T16:16:37.237Z,2.78
2022-07-29T16:18:39.336Z,2.90
2022-07-29T16:20:41.549Z,3.00
2022-07-29T16:22:44.190Z,3.05
2022-07-29T16:24:46.333Z,3.42
2022-07-29T16:26:48.513Z,3.47
2022-07-29T16:28:50.646Z,3.08
2022-07-29T16:30:53.993Z,3.08
2022-07-29T16:32:57.725Z,3.42
2022-07-29T16:34:59.893Z,3.40
2022-07-29T16:37:02.230Z,3.78
2022-07-29T16:39:04.556Z,3.10
2022-07-29T16:41:06.672Z,3.40
2022-07-29T16:43:08.912Z,3.20
2022-07-29T16:45:11.179Z,3.65
2022-07-29T16:47:13.290Z,3.22
2022-07-29T16:49:19.275Z,3.50
2022-07-29T16:51:21.821Z,3.40
2022-07-29T16:53:28.348Z,3.38
2022-07-29T16:55:32.110Z,3.00
2022-07-29T16:57:34.295Z,3.22
2022-07-29T16:59:36.406Z,3.22
2022-07-29T17:01:45.778Z,3.45
2022-07-29T17:03:47.973Z,3.22
2022-07-29T17:05:53.995Z,3.35
2022-07-29T17:07:56.441Z,3.40
2022-07-29T17:10:03.610Z,4.15
2022-07-29T17:12:06.611Z,3.58
2022-07-29T17:14:09.006Z,2.83
2022-07-29T17:16:11.264Z,4.30
2022-07-29T17:18:13.468Z,3.63
2022-07-29T17:20:17.631Z,3.80
2022-07-29T17:22:21.278Z,3.58
2022-07-29T17:24:23.397Z,3.75
2022-07-29T17:26:26.769Z,3.70
2022-07-29T17:28:30.342Z,3.33
2022-07-29T17:30:32.451Z,3.63
2022-07-29T17:32:34.601Z,3.75
2022-07-29T17:34:36.850Z,3.80
2022-07-29T17:36:39.194Z,3.80
2022-07-29T17:38:42.718Z,3.65
2022-07-29T17:40:44.901Z,3.65
2022-07-29T17:42:47.012Z,3.47
2022-07-29T17:44:49.141Z,4.03
2022-07-29T17:46:51.319Z,3.67
2022-07-29T17:48:53.895Z,4.13
2022-07-29T17:50:56.699Z,3.65
2022-07-29T17:52:58.950Z,3.63
2022-07-29T17:55:02.460Z,3.55
2022-07-29T17:57:04.739Z,3.88
2022-07-29T17:59:07.133Z,3.60
2022-07-29T18:01:10.484Z,3.70
2022-07-29T18:03:12.768Z,5.43
2022-07-29T18:05:14.981Z,3.55
2022-07-29T18:07:17.153Z,3.88
2022-07-29T18:09:19.320Z,3.80
2022-07-29T18:11:23.141Z,3.60
2022-07-29T18:13:25.260Z,3.65
2022-07-29T18:15:27.368Z,3.53
2022-07-29T18:17:50.398Z,3.40
2022-07-29T18:19:51.611Z,4.10
2022-07-29T18:21:55.326Z,4.15
2022-07-29T18:23:58.785Z,3.65
2022-07-29T18:26:00.973Z,3.72
2022-07-29T18:28:04.685Z,4.18
2022-07-29T18:30:07.634Z,3.95
2022-07-29T18:32:09.751Z,4.78
2022-07-29T18:34:11.879Z,4.38
2022-07-29T18:36:14.047Z,4.28
2022-07-29T18:38:16.145Z,4.28
2022-07-29T18:40:19.377Z,4.15
2022-07-29T18:42:21.500Z,4.35
2022-07-29T18:44:24.991Z,4.25
2022-07-29T18:46:27.196Z,4.18
2022-07-29T18:48:29.381Z,4.57
2022-07-29T18:50:31.549Z,4.60
2022-07-29T18:52:33.931Z,4.28
2022-07-29T18:54:36.043Z,4.40
2022-07-29T18:56:38.162Z,4.43
2022-07-29T18:58:40.292Z,3.92
2022-07-29T19:00:43.828Z,3.83
2022-07-29T19:02:46.008Z,4.25
2022-07-29T19:04:48.451Z,4.15
2022-07-29T19:06:50.585Z,4.50
2022-07-29T19:08:52.791Z,4.22
2022-07-29T19:10:54.902Z,4.35
2022-07-29T19:12:57.110Z,4.15
2022-07-29T19:14:59.227Z,4.47
2022-07-29T19:17:02.752Z,4.20
2022-07-29T19:19:04.899Z,4.45
2022-07-29T19:21:06.972Z,4.13
2022-07-29T19:23:09.092Z,4.45
2022-07-29T19:25:11.246Z,4.38
2022-07-29T19:27:13.376Z,4.53
2022-07-29T19:29:15.767Z,4.63
2022-07-29T19:31:17.983Z,4.80
2022-07-29T19:33:21.501Z,4.97
2022-07-29T19:35:23.651Z,4.30
2022-07-29T19:37:25.794Z,4.60
2022-07-29T19:39:31.759Z,4.72
2022-07-29T19:41:37.669Z,4.70
2022-07-29T19:43:51.239Z,4.40
2022-07-29T19:45:54.958Z,4.63
2022-07-29T19:48:01.314Z,4.70
2022-07-29T19:50:05.747Z,4.97
2022-07-29T19:52:08.005Z,4.68
2022-07-29T19:54:10.096Z,5.05
2022-07-29T19:56:12.353Z,5.00
2022-07-29T19:58:14.499Z,5.22
2022-07-29T20:00:17.184Z,4.90
2022-07-29T20:02:23.233Z,4.85
2022-07-29T20:04:25.427Z,5.20
2022-07-29T20:06:28.887Z,4.72
2022-07-29T20:08:31.087Z,4.75
2022-07-29T20:10:33.374Z,4.80
2022-07-29T20:12:35.661Z,4.82
2022-07-29T20:14:37.981Z,5.50
2022-07-29T20:16:40.108Z,5.63
2022-07-29T20:18:42.203Z,5.22
2022-07-29T20:20:44.438Z,5.03
2022-07-29T20:22:47.890Z,5.05
2022-07-29T20:24:50.083Z,5.00
2022-07-29T20:26:52.292Z,5.13
2022-07-29T20:28:54.489Z,5.47
2022-07-29T20:30:56.685Z,5.07
2022-07-29T20:32:58.902Z,5.10
2022-07-29T20:35:00.977Z,5.22
2022-07-29T20:37:03.274Z,5.40
2022-07-29T20:39:06.860Z,5.63
2022-07-29T20:41:09.071Z,5.82
2022-07-29T20:43:11.190Z,6.38
2022-07-29T20:45:13.397Z,6.00
2022-07-29T20:47:15.503Z,5.95
2022-07-29T20:49:17.750Z,5.68
2022-07-29T20:51:20.298Z,6.35
2022-07-29T20:53:22.487Z,6.30
2022-07-29T20:55:26.139Z,5.50
2022-07-29T20:57:38.886Z,5.82
2022-07-29T20:59:45.702Z,6.13
2022-07-29T21:01:48.087Z,6.25
2022-07-29T21:03:50.241Z,5.50
2022-07-29T21:05:52.441Z,6.32
2022-07-29T21:07:58.113Z,6.15
2022-07-29T21:10:00.473Z,6.82
2022-07-29T21:12:04.065Z,6.65
2022-07-29T21:14:06.178Z,6.63
2022-07-29T21:16:09.681Z,6.25
2022-07-29T21:18:11.904Z,6.30
2022-07-29T21:20:14.480Z,6.25
2022-07-29T21:22:16.598Z,7.28
2022-07-29T21:24:18.711Z,6.97
2022-07-29T21:26:20.814Z,6.85
2022-07-29T21:28:24.324Z,6.75
2022-07-29T21:30:26.402Z,6.57
2022-07-29T21:32:29.880Z,7.03
2022-07-29T21:34:32.548Z,7.13
2022-07-29T21:36:49.872Z,7.65
2022-07-29T21:38:52.045Z,8.07
2022-07-29T21:40:54.290Z,7.93
2022-07-29T21:42:56.445Z,8.05
2022-07-29T21:44:59.986Z,7.47
2022-07-29T21:47:02.590Z,8.20
2022-07-29T21:49:05.190Z,7.70
2022-07-29T21:51:07.395Z,8.10
2022-07-29T21:53:11.079Z,8.10
2022-07-29T21:55:19.253Z,8.32
2022-07-29T21:57:21.571Z,7.93
2022-07-29T21:59:23.728Z,7.90
2022-07-29T22:01:27.319Z,7.68
2022-07-29T22:03:29.479Z,8.13
2022-07-29T22:05:32.024Z,7.82
2022-07-29T22:07:54.541Z,7.85
2022-07-29T22:09:56.236Z,7.50
2022-07-29T22:11:58.379Z,7.47
2022-07-29T22:14:00.448Z,7.72
2022-07-29T22:16:02.628Z,8.68
2022-07-29T22:18:06.272Z,8.27
2022-07-29T22:20:08.932Z,7.63
2022-07-29T22:22:11.058Z,8.38
2022-07-29T22:24:13.227Z,7.80
2022-07-29T22:26:15.362Z,7.80
2022-07-29T22:28:17.521Z,8.50
2022-07-29T22:30:19.665Z,8.23
2022-07-29T22:32:22.028Z,8.00
2022-07-29T22:34:25.547Z,8.43
2022-07-29T22:36:39.367Z,8.80
2022-07-29T22:38:41.469Z,8.50
2022-07-29T22:40:43.564Z,8.35
2022-07-29T22:42:45.969Z,7.60
2022-07-29T22:44:48.113Z,8.10
2022-07-29T22:46:50.282Z,8.05
2022-07-29T22:48:52.496Z,8.80
2022-07-29T22:50:56.017Z,8.43
2022-07-29T22:52:58.118Z,7.70
2022-07-29T22:55:00.306Z,8.35
2022-07-29T22:57:02.785Z,8.80
2022-07-29T22:59:05.045Z,8.73
2022-07-29T23:01:07.288Z,8.60
2022-07-29T23:03:09.479Z,8.45
2022-07-29T23:05:11.582Z,8.40
2022-07-29T23:07:15.138Z,8.75
2022-07-29T23:09:17.275Z,9.32
2022-07-29T23:11:19.435Z,8.18
2022-07-29T23:13:21.613Z,7.80
2022-07-29T23:15:23.746Z,8.00
2022-07-29T23:17:25.986Z,7.85
2022-07-29T23:19:28.103Z,8.27
2022-07-29T23:21:30.218Z,8.43
2022-07-29T23:23:33.713Z,8.18
2022-07-29T23:25:35.928Z,8.27
2022-07-29T23:27:38.017Z,8.30
2022-07-29T23:29:40.107Z,8.55
2022-07-29T23:31:46.782Z,8.63
2022-07-29T23:33:50.482Z,7.90
2022-07-29T23:35:52.612Z,7.88
2022-07-29T23:37:54.752Z,8.40
2022-07-29T23:39:58.232Z,9.30
2022-07-29T23:42:00.353Z,8.10
2022-07-29T23:44:02.471Z,7.82
2022-07-29T23:46:05.045Z,8.60
2022-07-29T23:48:08.583Z,8.38
2022-07-29T23:50:12.173Z,8.18
2022-07-29T23:52:14.304Z,8.23
2022-07-29T23:54:16.479Z,8.70
2022-07-29T23:56:20.038Z,8.52
2022-07-29T23:58:22.159Z,7.85
